createdAt,value
2023-05-22T00:01:18.963Z,20.52
2023-05-22T00:03:49.580Z,19.40
2023-05-22T00:06:20.863Z,19.95
2023-05-22T00:08:51.426Z,23.30
2023-05-22T00:11:21.804Z,22.20
2023-05-22T00:13:52.344Z,18.17
2023-05-22T00:16:22.998Z,17.47
2023-05-22T00:18:53.351Z,18.38
2023-05-22T00:21:23.780Z,18.73
2023-05-22T00:23:54.134Z,20.17
2023-05-22T00:26:27.374Z,21.90
2023-05-22T00:28:58.012Z,20.25
2023-05-22T00:31:28.525Z,21.00
2023-05-22T00:33:58.857Z,21.87
2023-05-22T00:36:29.586Z,20.83
2023-05-22T00:38:59.985Z,17.77
2023-05-22T00:41:30.901Z,18.33
2023-05-22T00:44:01.218Z,24.35
2023-05-22T00:46:31.723Z,20.20
2023-05-22T00:49:02.143Z,21.57
2023-05-22T00:51:32.969Z,23.83
2023-05-22T00:54:03.540Z,22.45
2023-05-22T00:56:34.066Z,21.98
2023-05-22T00:59:04.684Z,22.40
2023-05-22T01:01:39.324Z,19.60
2023-05-22T01:04:13.015Z,18.98
2023-05-22T01:06:43.898Z,21.33
2023-05-22T01:09:15.328Z,27.80
2023-05-22T01:11:59.349Z,25.75
2023-05-22T01:14:48.740Z,22.60
2023-05-22T01:17:27.396Z,24.35
2023-05-22T01:20:11.613Z,20.60
2023-05-22T01:23:06.682Z,22.85
2023-05-22T01:26:08.033Z,20.63
2023-05-22T01:31:20.069Z,23.98
2023-05-22T01:33:57.844Z,23.08
2023-05-22T01:36:33.528Z,22.77
2023-05-22T01:39:06.938Z,20.98
2023-05-22T01:41:37.985Z,23.70
2023-05-22T01:44:08.706Z,25.25
2023-05-22T01:46:39.109Z,20.20
2023-05-22T01:49:11.519Z,19.97
2023-05-22T01:51:56.142Z,20.67
2023-05-22T01:54:36.054Z,26.10
2023-05-22T01:57:41.546Z,22.92
2023-05-22T02:00:18.173Z,25.17
2023-05-22T02:02:54.101Z,21.65
2023-05-22T02:05:27.106Z,24.25
2023-05-22T02:08:01.185Z,22.10
2023-05-22T02:10:34.075Z,25.85
2023-05-22T02:13:05.241Z,21.45
2023-05-22T02:15:36.092Z,23.42
2023-05-22T02:18:06.630Z,23.25
2023-05-22T02:20:38.573Z,21.23
2023-05-22T02:23:09.298Z,24.48
2023-05-22T02:25:39.765Z,28.17
2023-05-22T02:28:10.148Z,26.53
2023-05-22T02:30:40.940Z,21.67
2023-05-22T02:33:11.808Z,23.98
2023-05-22T02:35:42.370Z,24.05
2023-05-22T02:38:12.487Z,23.00
2023-05-22T02:40:43.112Z,23.07
2023-05-22T02:43:13.366Z,22.10
2023-05-22T02:45:44.115Z,21.55
2023-05-22T02:48:15.584Z,25.23
2023-05-22T02:50:46.684Z,24.35
2023-05-22T02:53:18.236Z,30.75
2023-05-22T02:55:49.458Z,20.98
2023-05-22T02:58:20.371Z,20.77
2023-05-22T03:00:50.781Z,26.15
2023-05-22T03:03:21.492Z,23.83
2023-05-22T03:05:52.501Z,25.23
2023-05-22T03:08:23.420Z,23.77
2023-05-22T03:10:53.694Z,21.75
2023-05-22T03:13:24.335Z,22.60
2023-05-22T03:15:55.257Z,21.58
2023-05-22T03:18:27.651Z,24.17
2023-05-22T03:20:59.145Z,20.70
2023-05-22T03:23:29.566Z,21.80
2023-05-22T03:26:02.990Z,21.40
2023-05-22T03:28:37.193Z,21.85
2023-05-22T03:31:08.207Z,25.20
2023-05-22T03:33:49.262Z,24.33
2023-05-22T03:36:21.619Z,21.83
2023-05-22T03:38:52.577Z,23.63
2023-05-22T03:41:23.125Z,24.08
2023-05-22T03:43:54.434Z,20.63
2023-05-22T03:46:26.683Z,24.20
2023-05-22T03:48:57.919Z,26.42
2023-05-22T03:51:28.232Z,21.15
2023-05-22T03:54:01.416Z,21.73
2023-05-22T03:56:31.773Z,24.45
2023-05-22T03:59:02.044Z,22.20
2023-05-22T04:01:32.444Z,22.45
2023-05-22T04:04:03.297Z,22.38
2023-05-22T04:06:36.982Z,23.20
2023-05-22T04:09:07.331Z,24.48
2023-05-22T04:11:38.207Z,23.33
2023-05-22T04:14:09.455Z,22.55
2023-05-22T04:16:39.924Z,24.85
2023-05-22T04:19:11.796Z,27.13
2023-05-22T04:21:42.181Z,23.00
2023-05-22T04:24:13.575Z,23.15
2023-05-22T04:26:44.247Z,23.47
2023-05-22T04:29:16.888Z,22.42
2023-05-22T04:31:47.303Z,21.77
2023-05-22T04:34:19.472Z,21.97
2023-05-22T04:36:50.507Z,23.73
2023-05-22T04:41:53.031Z,23.48
2023-05-22T04:44:25.445Z,23.20
2023-05-22T04:46:55.820Z,21.02
2023-05-22T04:49:27.734Z,20.38
2023-05-22T04:51:59.867Z,22.75
2023-05-22T04:54:30.230Z,23.30
2023-05-22T04:57:00.608Z,23.40
2023-05-22T04:59:30.849Z,24.55
2023-05-22T05:02:01.102Z,21.83
2023-05-22T05:04:31.387Z,19.55
2023-05-22T05:07:01.872Z,22.17
2023-05-22T05:09:32.455Z,21.73
2023-05-22T05:12:04.404Z,21.75
2023-05-22T05:14:34.772Z,21.00
2023-05-22T05:17:05.088Z,25.37
2023-05-22T05:19:37.121Z,23.42
2023-05-22T05:22:08.030Z,22.38
2023-05-22T05:24:39.261Z,23.08
2023-05-22T05:27:09.830Z,24.13
2023-05-22T05:29:40.574Z,20.65
2023-05-22T05:32:26.548Z,24.05
2023-05-22T05:35:04.319Z,23.10
2023-05-22T05:37:48.105Z,20.75
2023-05-22T05:40:18.756Z,24.23
2023-05-22T05:42:53.726Z,24.00
2023-05-22T05:45:29.232Z,24.25
2023-05-22T05:48:00.304Z,23.17
2023-05-22T05:50:30.750Z,23.33
2023-05-22T05:53:01.146Z,21.37
2023-05-22T05:55:41.650Z,21.93
2023-05-22T05:58:12.006Z,24.07
2023-05-22T06:00:56.286Z,19.73
2023-05-22T06:03:28.070Z,19.58
2023-05-22T06:06:16.504Z,21.48
2023-05-22T06:09:13.441Z,21.45
2023-05-22T06:12:07.536Z,20.45
2023-05-22T06:14:38.028Z,21.98
2023-05-22T06:17:11.566Z,21.88
2023-05-22T06:19:44.711Z,18.90
2023-05-22T06:22:17.048Z,23.55
2023-05-22T06:24:50.756Z,20.55
2023-05-22T06:27:29.842Z,22.90
2023-05-22T06:30:00.312Z,20.40
2023-05-22T06:32:34.473Z,24.27
2023-05-22T06:35:05.902Z,22.90
2023-05-22T06:37:37.996Z,21.73
2023-05-22T06:40:10.392Z,19.15
2023-05-22T06:42:51.004Z,24.40
2023-05-22T06:45:35.708Z,22.23
2023-05-22T06:48:23.537Z,20.38
2023-05-22T06:51:03.997Z,20.87
2023-05-22T06:53:34.477Z,19.63
2023-05-22T06:56:05.703Z,20.88
2023-05-22T06:58:54.410Z,19.23
2023-05-22T07:01:31.684Z,21.60
2023-05-22T07:04:12.180Z,20.73
2023-05-22T07:09:32.674Z,21.58
2023-05-22T07:12:03.025Z,18.17
2023-05-22T07:14:34.082Z,22.40
2023-05-22T07:17:05.494Z,21.95
2023-05-22T07:19:41.403Z,19.58
2023-05-22T07:22:12.263Z,22.30
2023-05-22T07:27:15.281Z,20.70
2023-05-22T07:29:45.709Z,19.38
2023-05-22T07:32:16.275Z,17.97
2023-05-22T07:34:47.359Z,19.02
2023-05-22T07:37:18.284Z,19.37
2023-05-22T07:39:53.858Z,21.48
2023-05-22T07:42:24.207Z,23.23
2023-05-22T07:44:57.356Z,19.00
2023-05-22T07:47:27.892Z,16.67
2023-05-22T07:49:58.370Z,17.50
2023-05-22T07:52:28.695Z,18.70
2023-05-22T07:54:59.419Z,17.77
2023-05-22T07:57:32.200Z,15.65
2023-05-22T08:00:16.377Z,20.80
2023-05-22T08:02:46.948Z,21.45
2023-05-22T08:05:17.473Z,17.25
2023-05-22T08:07:47.985Z,19.87
2023-05-22T08:10:19.620Z,19.87
2023-05-22T08:12:49.945Z,21.17
2023-05-22T08:15:20.375Z,18.33
2023-05-22T08:17:51.132Z,18.20
2023-05-22T08:20:22.607Z,17.50
2023-05-22T08:22:53.117Z,21.10
2023-05-22T08:25:23.703Z,22.33
2023-05-22T08:27:54.499Z,18.02
2023-05-22T08:30:24.988Z,20.65
2023-05-22T08:32:55.359Z,20.15
2023-05-22T08:35:25.674Z,20.17
2023-05-22T08:37:56.050Z,18.50
2023-05-22T08:40:32.102Z,19.10
2023-05-22T08:43:02.636Z,17.52
2023-05-22T08:45:36.458Z,21.92
2023-05-22T08:48:08.811Z,22.95
2023-05-22T08:50:47.178Z,24.42
2023-05-22T08:53:20.446Z,24.15
2023-05-22T08:55:51.060Z,22.88
2023-05-22T08:58:21.942Z,21.60
2023-05-22T09:00:52.664Z,22.85
2023-05-22T09:03:23.964Z,21.30
2023-05-22T09:05:54.731Z,19.90
2023-05-22T09:08:24.923Z,17.47
2023-05-22T09:10:57.425Z,18.43
2023-05-22T09:13:34.424Z,19.15
2023-05-22T09:16:12.147Z,18.90
2023-05-22T09:18:44.511Z,20.67
2023-05-22T09:21:29.427Z,20.67
2023-05-22T09:24:04.097Z,19.98
2023-05-22T09:26:36.049Z,18.48
2023-05-22T09:29:08.416Z,20.17
2023-05-22T09:31:46.800Z,18.70
2023-05-22T09:34:20.048Z,19.77
2023-05-22T09:36:52.293Z,20.23
2023-05-22T09:39:23.450Z,22.60
2023-05-22T09:41:54.013Z,23.13
2023-05-22T09:44:29.329Z,20.87
2023-05-22T09:46:59.720Z,22.55
2023-05-22T09:49:30.571Z,22.80
2023-05-22T09:54:37.014Z,25.77
2023-05-22T09:57:12.038Z,29.08
2023-05-22T09:59:45.462Z,21.65
2023-05-22T10:02:16.290Z,24.65
2023-05-22T10:04:50.540Z,22.65
2023-05-22T10:07:37.172Z,22.67
2023-05-22T10:10:14.624Z,27.25
2023-05-22T10:12:58.987Z,24.17
2023-05-22T10:15:29.713Z,20.63
2023-05-22T10:18:01.916Z,25.13
2023-05-22T10:20:33.317Z,24.55
2023-05-22T10:23:06.575Z,24.15
2023-05-22T10:25:40.321Z,20.05
2023-05-22T10:28:12.069Z,22.92
2023-05-22T10:31:06.182Z,23.60
2023-05-22T10:34:04.285Z,22.38
2023-05-22T10:37:16.470Z,21.05
2023-05-22T10:40:07.009Z,20.65
2023-05-22T10:42:39.733Z,19.80
2023-05-22T10:45:10.833Z,22.35
2023-05-22T10:50:13.532Z,18.10
2023-05-22T10:52:44.043Z,21.90
2023-05-22T10:55:14.512Z,22.23
2023-05-22T10:57:45.338Z,23.30
2023-05-22T11:00:18.625Z,19.42
2023-05-22T11:02:54.018Z,21.63
2023-05-22T11:05:28.257Z,22.48
2023-05-22T11:08:34.907Z,21.13
2023-05-22T11:11:15.403Z,18.35
2023-05-22T11:13:46.186Z,23.03
2023-05-22T11:16:18.993Z,20.15
2023-05-22T11:18:49.518Z,22.10
2023-05-22T11:21:19.859Z,21.63
2023-05-22T11:23:50.323Z,24.27
2023-05-22T11:26:28.027Z,21.80
2023-05-22T11:28:59.069Z,20.83
2023-05-22T11:31:30.040Z,26.08
2023-05-22T11:36:31.559Z,20.10
2023-05-22T11:39:02.576Z,22.35
2023-05-22T11:41:36.801Z,16.38
2023-05-22T11:44:11.367Z,19.48
2023-05-22T11:46:42.339Z,18.85
2023-05-22T11:51:54.883Z,20.17
2023-05-22T11:54:26.084Z,17.15
2023-05-22T11:56:56.556Z,18.02
2023-05-22T11:59:26.893Z,19.83
2023-05-22T12:01:57.417Z,22.23
2023-05-22T12:04:28.050Z,20.13
2023-05-22T12:06:58.633Z,21.43
2023-05-22T12:09:31.889Z,22.20
2023-05-22T12:12:02.768Z,18.92
2023-05-22T12:14:34.619Z,22.52
2023-05-22T12:17:25.292Z,19.92
2023-05-22T12:19:56.331Z,16.38
2023-05-22T12:22:28.812Z,21.92
2023-05-22T12:24:59.197Z,20.45
2023-05-22T12:27:34.524Z,17.93
2023-05-22T12:30:13.027Z,21.05
2023-05-22T12:32:43.767Z,16.77
2023-05-22T12:35:21.400Z,18.98
2023-05-22T12:37:53.603Z,17.50
2023-05-22T12:40:24.026Z,15.65
2023-05-22T12:42:54.710Z,16.85
2023-05-22T12:45:46.861Z,16.73
2023-05-22T12:48:18.452Z,15.97
2023-05-22T12:50:49.485Z,18.23
2023-05-22T12:55:50.307Z,18.85
2023-05-22T12:58:20.720Z,22.10
2023-05-22T13:00:51.783Z,21.27
2023-05-22T13:03:22.631Z,18.98
2023-05-22T13:05:53.277Z,19.08
2023-05-22T13:08:24.693Z,18.80
2023-05-22T13:10:55.969Z,19.70
2023-05-22T13:15:56.333Z,17.15
2023-05-22T13:18:26.501Z,19.08
2023-05-22T13:20:58.834Z,20.10
2023-05-22T13:23:29.575Z,16.80
2023-05-22T13:26:00.302Z,18.60
2023-05-22T13:28:30.734Z,23.63
2023-05-22T13:31:01.341Z,28.00
2023-05-22T13:33:31.811Z,25.87
2023-05-22T13:36:02.160Z,18.60
2023-05-22T13:38:32.484Z,20.38
2023-05-22T13:41:02.707Z,15.57
2023-05-22T13:43:33.135Z,17.43
2023-05-22T13:46:03.418Z,18.87
2023-05-22T13:48:33.662Z,17.48
2023-05-22T13:51:04.178Z,17.57
2023-05-22T13:53:34.590Z,18.60
2023-05-22T13:56:04.966Z,17.13
2023-05-22T13:58:35.376Z,16.20
2023-05-22T14:01:05.729Z,18.20
2023-05-22T14:03:36.240Z,15.10
2023-05-22T14:06:06.871Z,21.05
2023-05-22T14:08:37.496Z,17.60
2023-05-22T14:11:07.830Z,16.80
2023-05-22T14:13:38.627Z,18.20
2023-05-22T14:16:09.023Z,17.63
2023-05-22T14:18:39.312Z,21.33
2023-05-22T14:21:09.646Z,18.13
2023-05-22T14:23:39.883Z,15.75
2023-05-22T14:26:10.996Z,19.67
2023-05-22T14:28:42.334Z,22.50
2023-05-22T14:31:12.957Z,18.47
2023-05-22T14:33:43.268Z,17.75
2023-05-22T14:36:13.661Z,16.43
2023-05-22T14:38:43.852Z,17.75
2023-05-22T14:41:14.324Z,20.93
2023-05-22T14:43:44.679Z,17.90
2023-05-22T14:46:15.203Z,18.83
2023-05-22T14:48:45.532Z,16.43
2023-05-22T14:51:15.909Z,21.87
2023-05-22T14:53:46.610Z,17.30
2023-05-22T14:56:16.873Z,16.60
2023-05-22T14:58:47.320Z,17.37
2023-05-22T15:01:17.685Z,19.67
2023-05-22T15:03:48.081Z,19.90
2023-05-22T15:06:18.463Z,17.07
2023-05-22T15:08:49.345Z,16.93
2023-05-22T15:11:19.812Z,18.30
2023-05-22T15:13:50.443Z,21.83
2023-05-22T15:16:20.924Z,18.55
2023-05-22T15:18:51.545Z,19.87
2023-05-22T15:23:53.643Z,22.63
2023-05-22T15:28:54.260Z,16.23
2023-05-22T15:31:24.507Z,15.25
2023-05-22T15:33:54.940Z,17.00
2023-05-22T15:36:26.074Z,17.97
2023-05-22T15:41:26.238Z,16.30
2023-05-22T15:43:56.870Z,17.13
2023-05-22T15:46:27.235Z,16.13
2023-05-22T15:48:57.535Z,15.93
2023-05-22T15:51:27.789Z,20.83
2023-05-22T15:53:58.072Z,17.90
2023-05-22T15:56:28.573Z,15.43
2023-05-22T15:58:59.025Z,16.07
2023-05-22T16:01:30.190Z,17.60
2023-05-22T16:04:00.558Z,15.00
2023-05-22T16:06:30.994Z,16.57
2023-05-22T16:09:01.520Z,17.08
2023-05-22T16:11:32.107Z,19.50
2023-05-22T16:14:02.488Z,16.03
2023-05-22T16:16:33.947Z,15.63
2023-05-22T16:19:04.233Z,15.95
2023-05-22T16:21:34.733Z,19.67
2023-05-22T16:24:05.943Z,15.32
2023-05-22T16:26:36.413Z,17.40
2023-05-22T16:29:08.490Z,19.17
2023-05-22T16:31:39.077Z,16.38
2023-05-22T16:34:09.508Z,17.47
2023-05-22T16:36:40.093Z,14.43
2023-05-22T16:39:10.271Z,14.90
2023-05-22T16:41:40.823Z,16.17
2023-05-22T16:44:11.416Z,14.93
2023-05-22T16:46:41.956Z,18.77
2023-05-22T16:49:12.408Z,16.27
2023-05-22T16:51:42.847Z,16.27
2023-05-22T16:54:13.271Z,15.73
2023-05-22T16:56:43.763Z,21.80
2023-05-22T16:59:14.294Z,19.47
2023-05-22T17:01:45.697Z,16.10
2023-05-22T17:04:18.276Z,17.30
2023-05-22T17:06:48.970Z,19.25
2023-05-22T17:09:19.284Z,17.70
2023-05-22T17:11:49.865Z,18.23
2023-05-22T17:14:20.032Z,18.63
2023-05-22T17:16:51.558Z,17.63
2023-05-22T17:19:21.874Z,16.40
2023-05-22T17:21:52.338Z,18.85
2023-05-22T17:24:22.769Z,16.98
2023-05-22T17:26:53.132Z,18.00
2023-05-22T17:29:24.478Z,17.20
2023-05-22T17:31:55.342Z,17.70
2023-05-22T17:34:26.634Z,17.30
2023-05-22T17:36:56.944Z,18.52
2023-05-22T17:39:27.252Z,19.90
2023-05-22T17:41:59.052Z,16.40
2023-05-22T17:44:30.621Z,17.92
2023-05-22T17:47:01.006Z,16.77
2023-05-22T17:49:31.223Z,16.47
2023-05-22T17:52:01.526Z,18.55
2023-05-22T17:54:38.177Z,16.87
2023-05-22T17:57:08.646Z,14.75
2023-05-22T17:59:40.200Z,17.67
2023-05-22T18:02:11.888Z,16.27
2023-05-22T18:07:11.958Z,15.20
2023-05-22T18:09:42.243Z,15.80
2023-05-22T18:12:27.864Z,18.08
2023-05-22T18:15:01.056Z,14.30
2023-05-22T18:17:31.403Z,17.60
2023-05-22T18:20:03.072Z,17.10
2023-05-22T18:22:33.421Z,15.35
2023-05-22T18:25:03.805Z,16.37
2023-05-22T18:27:34.165Z,16.57
2023-05-22T18:30:04.978Z,14.67
2023-05-22T18:32:35.476Z,16.83
2023-05-22T18:35:06.709Z,15.02
2023-05-22T18:40:11.298Z,15.00
2023-05-22T18:42:41.937Z,18.52
2023-05-22T18:45:13.881Z,17.40
2023-05-22T18:47:44.226Z,16.00
2023-05-22T18:50:14.979Z,18.23
2023-05-22T18:52:45.680Z,16.65
2023-05-22T18:55:16.151Z,17.58
2023-05-22T18:57:46.521Z,16.63
2023-05-22T19:00:17.079Z,16.03
2023-05-22T19:02:49.706Z,19.25
2023-05-22T19:05:20.031Z,15.93
2023-05-22T19:07:50.310Z,16.87
2023-05-22T19:10:20.715Z,15.95
2023-05-22T19:12:51.004Z,15.80
2023-05-22T19:15:21.387Z,17.43
2023-05-22T19:17:51.759Z,17.87
2023-05-22T19:20:22.028Z,15.77
2023-05-22T19:22:53.739Z,16.05
2023-05-22T19:25:24.068Z,16.73
2023-05-22T19:27:54.432Z,15.13
2023-05-22T19:30:24.757Z,15.17
2023-05-22T19:32:58.132Z,16.43
2023-05-22T19:35:28.421Z,17.05
2023-05-22T19:37:58.743Z,16.75
2023-05-22T19:40:29.175Z,17.37
2023-05-22T19:42:59.543Z,16.00
2023-05-22T19:45:30.525Z,21.67
2023-05-22T19:48:00.969Z,18.42
2023-05-22T19:50:31.356Z,15.33
2023-05-22T19:53:02.086Z,14.93
2023-05-22T19:55:34.539Z,15.95
2023-05-22T19:58:05.245Z,16.88
2023-05-22T20:00:35.928Z,18.00
2023-05-22T20:03:06.472Z,15.68
2023-05-22T20:05:36.793Z,15.23
2023-05-22T20:08:07.060Z,15.50
2023-05-22T20:10:37.633Z,15.77
2023-05-22T20:13:08.481Z,16.50
2023-05-22T20:15:40.142Z,15.82
2023-05-22T20:18:13.032Z,16.52
2023-05-22T20:20:43.551Z,18.83
2023-05-22T20:23:13.793Z,20.60
2023-05-22T20:25:44.220Z,15.48
2023-05-22T20:28:14.589Z,16.07
2023-05-22T20:30:44.874Z,15.63
2023-05-22T20:33:16.248Z,17.05
2023-05-22T20:35:46.656Z,16.55
2023-05-22T20:38:16.980Z,19.80
2023-05-22T20:40:50.657Z,18.20
2023-05-22T20:43:21.451Z,14.98
2023-05-22T20:45:54.332Z,16.42
2023-05-22T20:48:24.709Z,18.25
2023-05-22T20:50:55.076Z,18.63
2023-05-22T20:53:26.810Z,19.03
2023-05-22T20:55:57.136Z,18.38
2023-05-22T20:58:27.516Z,17.07
2023-05-22T21:00:58.399Z,19.20
2023-05-22T21:03:28.754Z,19.20
2023-05-22T21:05:58.933Z,16.70
2023-05-22T21:08:29.410Z,18.97
2023-05-22T21:10:59.663Z,17.52
2023-05-22T21:13:29.997Z,16.77
2023-05-22T21:16:00.335Z,17.50
2023-05-22T21:18:30.643Z,24.33
2023-05-22T21:21:00.884Z,18.70
2023-05-22T21:23:31.259Z,18.08
2023-05-22T21:26:04.952Z,20.20
2023-05-22T21:28:35.434Z,22.05
2023-05-22T21:31:05.901Z,24.97
2023-05-22T21:33:36.406Z,21.90
2023-05-22T21:36:07.331Z,20.63
2023-05-22T21:38:37.613Z,20.05
2023-05-22T21:41:08.037Z,22.63
2023-05-22T21:43:38.390Z,20.67
2023-05-22T21:46:08.775Z,22.73
2023-05-22T21:48:39.311Z,19.83
2023-05-22T21:51:09.805Z,21.00
2023-05-22T21:53:40.203Z,19.90
2023-05-22T21:56:11.222Z,21.73
2023-05-22T21:58:41.509Z,21.40
2023-05-22T22:01:12.706Z,24.73
2023-05-22T22:03:44.927Z,22.27
2023-05-22T22:06:15.497Z,22.48
2023-05-22T22:08:45.901Z,26.30
2023-05-22T22:11:16.545Z,24.53
2023-05-22T22:13:46.924Z,23.55
2023-05-22T22:16:17.680Z,22.50
2023-05-22T22:18:51.409Z,25.38
2023-05-22T22:21:21.772Z,21.27
2023-05-22T22:23:52.617Z,25.57
2023-05-22T22:26:24.356Z,30.15
2023-05-22T22:28:54.949Z,24.83
2023-05-22T22:31:25.794Z,22.75
2023-05-22T22:33:56.128Z,21.17
2023-05-22T22:36:26.484Z,21.42
2023-05-22T22:38:56.793Z,26.73
2023-05-22T22:41:27.250Z,25.77
2023-05-22T22:43:57.720Z,24.73
2023-05-22T22:46:28.964Z,22.05
2023-05-22T22:51:54.120Z,25.50
2023-05-22T22:54:24.448Z,29.45
2023-05-22T22:56:56.581Z,27.33
2023-05-22T22:59:26.962Z,26.10
2023-05-22T23:01:57.327Z,29.00
2023-05-22T23:04:27.794Z,27.13
2023-05-22T23:06:59.897Z,28.80
2023-05-22T23:09:30.479Z,30.73
2023-05-22T23:12:00.702Z,22.60
2023-05-22T23:14:31.242Z,26.23
2023-05-22T23:17:01.639Z,23.87
2023-05-22T23:19:32.241Z,25.87
2023-05-22T23:22:02.725Z,24.38
2023-05-22T23:24:33.044Z,27.30
2023-05-22T23:27:03.822Z,24.70
2023-05-22T23:29:34.574Z,26.30
2023-05-22T23:32:04.946Z,22.88
2023-05-22T23:34:35.440Z,23.83
2023-05-22T23:37:05.845Z,25.87
2023-05-22T23:39:36.203Z,23.17
2023-05-22T23:42:07.789Z,25.33
2023-05-22T23:44:39.149Z,27.17
2023-05-22T23:47:09.994Z,26.65
2023-05-22T23:49:40.268Z,25.25
2023-05-22T23:52:10.616Z,25.27
2023-05-22T23:54:40.940Z,23.87
2023-05-22T23:57:11.548Z,26.58
2023-05-22T23:59:42.884Z,21.60
